sensor_id;sensor_type;location;lat;lon;timestamp;P1;durP1;ratioP1;P2;durP2;ratioP2
76433;SDS011;65265;53.200;6.080;2023-11-19T00:02:56;25.08;;;5.38;;
76433;SDS011;65265;53.200;6.080;2023-11-19T00:07:49;24.95;;;5.65;;
76433;SDS011;65265;53.200;6.080;2023-11-19T00:12:45;21.05;;;5.53;;
76433;SDS011;65265;53.200;6.080;2023-11-19T00:17:38;22.42;;;5.22;;
76433;SDS011;65265;53.200;6.080;2023-11-19T00:22:34;24.38;;;5.20;;
76433;SDS011;65265;53.200;6.080;2023-11-19T00:27:27;26.33;;;5.32;;
76433;SDS011;65265;53.200;6.080;2023-11-19T00:32:23;18.20;;;3.95;;
76433;SDS011;65265;53.200;6.080;2023-11-19T00:37:15;16.42;;;4.18;;
76433;SDS011;65265;53.200;6.080;2023-11-19T00:42:09;19.80;;;4.53;;
76433;SDS011;65265;53.200;6.080;2023-11-19T00:51:56;24.40;;;3.35;;
76433;SDS011;65265;53.200;6.080;2023-11-19T00:56:50;25.20;;;4.53;;
76433;SDS011;65265;53.200;6.080;2023-11-19T01:01:43;21.88;;;2.70;;
76433;SDS011;65265;53.200;6.080;2023-11-19T01:06:38;32.10;;;4.20;;
76433;SDS011;65265;53.200;6.080;2023-11-19T01:11:36;14.82;;;3.00;;
76433;SDS011;65265;53.200;6.080;2023-11-19T01:16:29;28.90;;;3.47;;
76433;SDS011;65265;53.200;6.080;2023-11-19T01:26:15;32.15;;;3.10;;
76433;SDS011;65265;53.200;6.080;2023-11-19T01:31:09;23.05;;;3.35;;
76433;SDS011;65265;53.200;6.080;2023-11-19T01:36:03;25.38;;;3.38;;
76433;SDS011;65265;53.200;6.080;2023-11-19T01:40:56;26.92;;;3.70;;
76433;SDS011;65265;53.200;6.080;2023-11-19T01:45:48;23.10;;;3.03;;
76433;SDS011;65265;53.200;6.080;2023-11-19T01:50:44;24.23;;;4.53;;
76433;SDS011;65265;53.200;6.080;2023-11-19T01:55:37;26.23;;;5.10;;
76433;SDS011;65265;53.200;6.080;2023-11-19T02:00:30;21.15;;;4.40;;
76433;SDS011;65265;53.200;6.080;2023-11-19T02:05:25;19.75;;;3.33;;
76433;SDS011;65265;53.200;6.080;2023-11-19T02:10:20;19.45;;;3.60;;
76433;SDS011;65265;53.200;6.080;2023-11-19T02:15:16;21.33;;;3.30;;
76433;SDS011;65265;53.200;6.080;2023-11-19T02:20:09;16.63;;;3.42;;
76433;SDS011;65265;53.200;6.080;2023-11-19T02:25:06;25.05;;;3.17;;
76433;SDS011;65265;53.200;6.080;2023-11-19T02:30:10;22.02;;;2.92;;
76433;SDS011;65265;53.200;6.080;2023-11-19T02:35:04;21.73;;;3.03;;
76433;SDS011;65265;53.200;6.080;2023-11-19T02:39:58;24.15;;;3.00;;
76433;SDS011;65265;53.200;6.080;2023-11-19T02:44:59;18.73;;;4.03;;
76433;SDS011;65265;53.200;6.080;2023-11-19T02:50:01;25.77;;;3.08;;
76433;SDS011;65265;53.200;6.080;2023-11-19T02:54:54;20.13;;;3.28;;
76433;SDS011;65265;53.200;6.080;2023-11-19T02:59:47;26.42;;;4.03;;
76433;SDS011;65265;53.200;6.080;2023-11-19T03:04:40;21.30;;;2.47;;
76433;SDS011;65265;53.200;6.080;2023-11-19T03:09:36;18.88;;;3.25;;
76433;SDS011;65265;53.200;6.080;2023-11-19T03:14:30;30.23;;;3.97;;
76433;SDS011;65265;53.200;6.080;2023-11-19T03:19:27;24.35;;;3.22;;
76433;SDS011;65265;53.200;6.080;2023-11-19T03:24:19;22.00;;;3.40;;
76433;SDS011;65265;53.200;6.080;2023-11-19T03:29:16;26.25;;;3.60;;
76433;SDS011;65265;53.200;6.080;2023-11-19T03:34:08;25.58;;;3.65;;
76433;SDS011;65265;53.200;6.080;2023-11-19T03:39:01;24.30;;;3.33;;
76433;SDS011;65265;53.200;6.080;2023-11-19T03:43:54;28.95;;;3.10;;
76433;SDS011;65265;53.200;6.080;2023-11-19T03:48:49;22.90;;;3.72;;
76433;SDS011;65265;53.200;6.080;2023-11-19T03:53:43;17.73;;;3.25;;
76433;SDS011;65265;53.200;6.080;2023-11-19T03:58:36;23.98;;;3.50;;
76433;SDS011;65265;53.200;6.080;2023-11-19T04:03:28;24.48;;;3.53;;
76433;SDS011;65265;53.200;6.080;2023-11-19T04:13:16;25.45;;;5.28;;
76433;SDS011;65265;53.200;6.080;2023-11-19T04:18:09;25.20;;;3.50;;
76433;SDS011;65265;53.200;6.080;2023-11-19T04:23:02;18.58;;;2.92;;
76433;SDS011;65265;53.200;6.080;2023-11-19T04:27:58;23.42;;;2.72;;
76433;SDS011;65265;53.200;6.080;2023-11-19T04:32:53;23.63;;;4.38;;
76433;SDS011;65265;53.200;6.080;2023-11-19T04:37:46;22.73;;;3.75;;
76433;SDS011;65265;53.200;6.080;2023-11-19T04:42:38;27.60;;;3.25;;
76433;SDS011;65265;53.200;6.080;2023-11-19T04:47:35;30.38;;;4.88;;
76433;SDS011;65265;53.200;6.080;2023-11-19T04:52:27;25.02;;;3.00;;
76433;SDS011;65265;53.200;6.080;2023-11-19T04:57:19;32.80;;;3.03;;
76433;SDS011;65265;53.200;6.080;2023-11-19T05:02:11;40.95;;;5.13;;
76433;SDS011;65265;53.200;6.080;2023-11-19T05:07:08;27.38;;;4.80;;
76433;SDS011;65265;53.200;6.080;2023-11-19T05:12:00;19.90;;;2.92;;
76433;SDS011;65265;53.200;6.080;2023-11-19T05:16:53;25.20;;;3.97;;
76433;SDS011;65265;53.200;6.080;2023-11-19T05:21:45;29.83;;;5.30;;
76433;SDS011;65265;53.200;6.080;2023-11-19T05:31:33;26.13;;;4.60;;
76433;SDS011;65265;53.200;6.080;2023-11-19T05:36:26;19.95;;;3.53;;
76433;SDS011;65265;53.200;6.080;2023-11-19T05:41:19;24.80;;;4.03;;
76433;SDS011;65265;53.200;6.080;2023-11-19T05:51:07;21.90;;;3.80;;
76433;SDS011;65265;53.200;6.080;2023-11-19T05:55:59;31.35;;;5.30;;
76433;SDS011;65265;53.200;6.080;2023-11-19T06:00:54;34.17;;;5.38;;
76433;SDS011;65265;53.200;6.080;2023-11-19T06:05:50;30.45;;;5.10;;
76433;SDS011;65265;53.200;6.080;2023-11-19T06:10:45;27.80;;;5.75;;
76433;SDS011;65265;53.200;6.080;2023-11-19T06:15:41;21.05;;;3.65;;
76433;SDS011;65265;53.200;6.080;2023-11-19T06:20:34;21.45;;;4.85;;
76433;SDS011;65265;53.200;6.080;2023-11-19T06:25:30;30.73;;;4.00;;
76433;SDS011;65265;53.200;6.080;2023-11-19T06:30:22;25.90;;;5.47;;
76433;SDS011;65265;53.200;6.080;2023-11-19T06:35:14;27.80;;;3.60;;
76433;SDS011;65265;53.200;6.080;2023-11-19T06:40:07;31.70;;;4.07;;
76433;SDS011;65265;53.200;6.080;2023-11-19T06:45:06;27.90;;;5.78;;
76433;SDS011;65265;53.200;6.080;2023-11-19T06:49:59;25.92;;;4.40;;
76433;SDS011;65265;53.200;6.080;2023-11-19T06:54:56;28.30;;;3.13;;
76433;SDS011;65265;53.200;6.080;2023-11-19T06:59:50;31.50;;;4.88;;
76433;SDS011;65265;53.200;6.080;2023-11-19T07:04:44;23.13;;;3.58;;
76433;SDS011;65265;53.200;6.080;2023-11-19T07:09:37;25.55;;;3.33;;
76433;SDS011;65265;53.200;6.080;2023-11-19T07:14:29;23.58;;;3.45;;
76433;SDS011;65265;53.200;6.080;2023-11-19T07:19:21;28.80;;;5.07;;
76433;SDS011;65265;53.200;6.080;2023-11-19T07:24:19;15.43;;;4.13;;
76433;SDS011;65265;53.200;6.080;2023-11-19T07:29:11;27.85;;;3.15;;
76433;SDS011;65265;53.200;6.080;2023-11-19T07:34:04;13.52;;;2.38;;
76433;SDS011;65265;53.200;6.080;2023-11-19T07:38:57;26.27;;;4.40;;
76433;SDS011;65265;53.200;6.080;2023-11-19T07:43:51;21.60;;;4.93;;
76433;SDS011;65265;53.200;6.080;2023-11-19T07:48:44;29.35;;;3.28;;
76433;SDS011;65265;53.200;6.080;2023-11-19T07:53:37;28.27;;;2.88;;
76433;SDS011;65265;53.200;6.080;2023-11-19T07:58:30;24.50;;;3.10;;
76433;SDS011;65265;53.200;6.080;2023-11-19T08:08:19;19.85;;;4.47;;
76433;SDS011;65265;53.200;6.080;2023-11-19T08:13:12;26.00;;;3.55;;
76433;SDS011;65265;53.200;6.080;2023-11-19T08:18:04;20.83;;;2.83;;
76433;SDS011;65265;53.200;6.080;2023-11-19T08:23:01;30.27;;;4.53;;
76433;SDS011;65265;53.200;6.080;2023-11-19T08:27:55;20.38;;;3.35;;
76433;SDS011;65265;53.200;6.080;2023-11-19T08:32:47;26.05;;;3.38;;
76433;SDS011;65265;53.200;6.080;2023-11-19T08:37:53;25.88;;;3.72;;
76433;SDS011;65265;53.200;6.080;2023-11-19T08:42:47;24.65;;;3.25;;
76433;SDS011;65265;53.200;6.080;2023-11-19T08:47:39;21.13;;;3.55;;
76433;SDS011;65265;53.200;6.080;2023-11-19T08:52:31;26.08;;;3.45;;
76433;SDS011;65265;53.200;6.080;2023-11-19T08:57:25;30.70;;;5.70;;
76433;SDS011;65265;53.200;6.080;2023-11-19T09:02:20;27.20;;;3.85;;
76433;SDS011;65265;53.200;6.080;2023-11-19T09:07:13;17.52;;;2.67;;
76433;SDS011;65265;53.200;6.080;2023-11-19T09:12:05;20.60;;;3.08;;
76433;SDS011;65265;53.200;6.080;2023-11-19T09:21:53;18.02;;;4.25;;
76433;SDS011;65265;53.200;6.080;2023-11-19T09:26:45;24.10;;;3.97;;
76433;SDS011;65265;53.200;6.080;2023-11-19T09:31:37;25.77;;;3.67;;
76433;SDS011;65265;53.200;6.080;2023-11-19T09:36:30;27.23;;;3.83;;
76433;SDS011;65265;53.200;6.080;2023-11-19T09:41:25;27.08;;;3.03;;
76433;SDS011;65265;53.200;6.080;2023-11-19T09:46:18;26.83;;;5.45;;
76433;SDS011;65265;53.200;6.080;2023-11-19T09:51:14;30.30;;;3.20;;
76433;SDS011;65265;53.200;6.080;2023-11-19T10:01:02;15.73;;;2.83;;
76433;SDS011;65265;53.200;6.080;2023-11-19T10:05:57;25.25;;;3.28;;
76433;SDS011;65265;53.200;6.080;2023-11-19T10:10:54;25.35;;;4.20;;
76433;SDS011;65265;53.200;6.080;2023-11-19T10:15:46;21.30;;;3.83;;
76433;SDS011;65265;53.200;6.080;2023-11-19T10:20:42;19.25;;;3.28;;
76433;SDS011;65265;53.200;6.080;2023-11-19T10:25:35;23.30;;;3.20;;
76433;SDS011;65265;53.200;6.080;2023-11-19T10:30:29;25.50;;;4.00;;
76433;SDS011;65265;53.200;6.080;2023-11-19T10:35:24;26.27;;;3.28;;
76433;SDS011;65265;53.200;6.080;2023-11-19T10:40:19;13.07;;;2.08;;
76433;SDS011;65265;53.200;6.080;2023-11-19T10:45:21;20.17;;;4.97;;
76433;SDS011;65265;53.200;6.080;2023-11-19T10:50:16;27.70;;;3.05;;
76433;SDS011;65265;53.200;6.080;2023-11-19T10:55:10;16.20;;;2.13;;
76433;SDS011;65265;53.200;6.080;2023-11-19T11:00:10;15.48;;;2.92;;
76433;SDS011;65265;53.200;6.080;2023-11-19T11:05:09;18.23;;;2.80;;
76433;SDS011;65265;53.200;6.080;2023-11-19T11:10:03;15.45;;;2.67;;
76433;SDS011;65265;53.200;6.080;2023-11-19T11:14:59;18.17;;;1.80;;
76433;SDS011;65265;53.200;6.080;2023-11-19T11:19:55;19.55;;;2.65;;
76433;SDS011;65265;53.200;6.080;2023-11-19T11:24:56;22.35;;;2.97;;
76433;SDS011;65265;53.200;6.080;2023-11-19T11:30:11;19.00;;;2.70;;
76433;SDS011;65265;53.200;6.080;2023-11-19T11:40:33;24.23;;;2.90;;
76433;SDS011;65265;53.200;6.080;2023-11-19T11:45:36;27.35;;;3.63;;
76433;SDS011;65265;53.200;6.080;2023-11-19T11:50:30;29.15;;;3.05;;
76433;SDS011;65265;53.200;6.080;2023-11-19T11:55:27;24.20;;;4.05;;
76433;SDS011;65265;53.200;6.080;2023-11-19T12:00:21;20.75;;;3.08;;
76433;SDS011;65265;53.200;6.080;2023-11-19T12:05:17;22.27;;;2.58;;
76433;SDS011;65265;53.200;6.080;2023-11-19T12:10:13;19.02;;;4.05;;
76433;SDS011;65265;53.200;6.080;2023-11-19T12:15:07;12.30;;;2.28;;
76433;SDS011;65265;53.200;6.080;2023-11-19T12:20:01;10.73;;;2.10;;
76433;SDS011;65265;53.200;6.080;2023-11-19T12:24:54;18.80;;;3.47;;
76433;SDS011;65265;53.200;6.080;2023-11-19T12:29:49;16.60;;;2.28;;
76433;SDS011;65265;53.200;6.080;2023-11-19T12:34:41;18.27;;;2.60;;
76433;SDS011;65265;53.200;6.080;2023-11-19T12:39:34;18.58;;;3.28;;
76433;SDS011;65265;53.200;6.080;2023-11-19T12:44:26;19.55;;;2.83;;
76433;SDS011;65265;53.200;6.080;2023-11-19T12:49:23;22.33;;;2.63;;
76433;SDS011;65265;53.200;6.080;2023-11-19T12:54:16;19.83;;;2.75;;
76433;SDS011;65265;53.200;6.080;2023-11-19T12:59:11;19.17;;;2.85;;
76433;SDS011;65265;53.200;6.080;2023-11-19T13:04:15;18.33;;;2.38;;
76433;SDS011;65265;53.200;6.080;2023-11-19T13:09:12;18.42;;;3.45;;
76433;SDS011;65265;53.200;6.080;2023-11-19T13:14:14;21.42;;;2.88;;
76433;SDS011;65265;53.200;6.080;2023-11-19T13:19:07;20.77;;;2.38;;
76433;SDS011;65265;53.200;6.080;2023-11-19T13:23:59;18.30;;;2.50;;
76433;SDS011;65265;53.200;6.080;2023-11-19T13:28:54;19.80;;;2.38;;
76433;SDS011;65265;53.200;6.080;2023-11-19T13:33:47;20.08;;;3.90;;
76433;SDS011;65265;53.200;6.080;2023-11-19T13:38:39;21.50;;;3.28;;
76433;SDS011;65265;53.200;6.080;2023-11-19T13:43:32;21.40;;;2.78;;
76433;SDS011;65265;53.200;6.080;2023-11-19T13:48:27;17.50;;;2.97;;
76433;SDS011;65265;53.200;6.080;2023-11-19T13:53:19;18.98;;;2.78;;
76433;SDS011;65265;53.200;6.080;2023-11-19T13:58:11;16.30;;;2.90;;
76433;SDS011;65265;53.200;6.080;2023-11-19T14:03:04;20.35;;;2.42;;
76433;SDS011;65265;53.200;6.080;2023-11-19T14:07:58;13.85;;;2.45;;
76433;SDS011;65265;53.200;6.080;2023-11-19T14:12:51;18.95;;;1.90;;
76433;SDS011;65265;53.200;6.080;2023-11-19T14:17:44;21.52;;;2.20;;
76433;SDS011;65265;53.200;6.080;2023-11-19T14:22:36;20.67;;;2.38;;
76433;SDS011;65265;53.200;6.080;2023-11-19T14:27:31;22.10;;;2.60;;
76433;SDS011;65265;53.200;6.080;2023-11-19T14:32:23;22.08;;;2.60;;
76433;SDS011;65265;53.200;6.080;2023-11-19T14:37:15;23.20;;;1.92;;
76433;SDS011;65265;53.200;6.080;2023-11-19T14:42:06;18.15;;;1.83;;
76433;SDS011;65265;53.200;6.080;2023-11-19T14:47:01;12.88;;;1.55;;
76433;SDS011;65265;53.200;6.080;2023-11-19T14:51:55;17.95;;;3.20;;
76433;SDS011;65265;53.200;6.080;2023-11-19T14:56:47;18.80;;;3.50;;
76433;SDS011;65265;53.200;6.080;2023-11-19T15:01:39;13.88;;;2.63;;
76433;SDS011;65265;53.200;6.080;2023-11-19T15:06:33;14.38;;;1.75;;
76433;SDS011;65265;53.200;6.080;2023-11-19T15:11:26;20.95;;;5.18;;
76433;SDS011;65265;53.200;6.080;2023-11-19T15:16:18;19.85;;;3.45;;
76433;SDS011;65265;53.200;6.080;2023-11-19T15:21:16;18.40;;;3.30;;
76433;SDS011;65265;53.200;6.080;2023-11-19T15:26:10;18.02;;;3.17;;
76433;SDS011;65265;53.200;6.080;2023-11-19T15:31:03;15.77;;;2.15;;
76433;SDS011;65265;53.200;6.080;2023-11-19T15:35:56;16.23;;;2.50;;
76433;SDS011;65265;53.200;6.080;2023-11-19T15:40:50;24.52;;;2.58;;
76433;SDS011;65265;53.200;6.080;2023-11-19T15:45:44;12.45;;;1.98;;
76433;SDS011;65265;53.200;6.080;2023-11-19T15:50:36;12.75;;;2.22;;
76433;SDS011;65265;53.200;6.080;2023-11-19T15:55:29;11.95;;;1.45;;
76433;SDS011;65265;53.200;6.080;2023-11-19T16:00:21;23.95;;;3.00;;
76433;SDS011;65265;53.200;6.080;2023-11-19T16:05:15;15.27;;;2.45;;
76433;SDS011;65265;53.200;6.080;2023-11-19T16:10:08;18.83;;;2.10;;
76433;SDS011;65265;53.200;6.080;2023-11-19T16:15:03;14.75;;;3.85;;
76433;SDS011;65265;53.200;6.080;2023-11-19T16:19:56;17.85;;;3.17;;
76433;SDS011;65265;53.200;6.080;2023-11-19T16:24:52;21.10;;;2.47;;
76433;SDS011;65265;53.200;6.080;2023-11-19T16:29:44;19.88;;;4.00;;
76433;SDS011;65265;53.200;6.080;2023-11-19T16:34:37;20.70;;;2.88;;
76433;SDS011;65265;53.200;6.080;2023-11-19T16:39:33;14.45;;;2.15;;
76433;SDS011;65265;53.200;6.080;2023-11-19T16:44:27;17.40;;;2.53;;
76433;SDS011;65265;53.200;6.080;2023-11-19T16:49:20;18.10;;;2.50;;
76433;SDS011;65265;53.200;6.080;2023-11-19T16:54:12;20.50;;;2.15;;
76433;SDS011;65265;53.200;6.080;2023-11-19T16:59:04;16.00;;;1.77;;
76433;SDS011;65265;53.200;6.080;2023-11-19T17:04:02;23.77;;;3.25;;
76433;SDS011;65265;53.200;6.080;2023-11-19T17:08:55;15.88;;;3.03;;
76433;SDS011;65265;53.200;6.080;2023-11-19T17:13:47;17.88;;;2.65;;
76433;SDS011;65265;53.200;6.080;2023-11-19T17:18:41;24.73;;;3.95;;
76433;SDS011;65265;53.200;6.080;2023-11-19T17:23:35;19.83;;;3.08;;
76433;SDS011;65265;53.200;6.080;2023-11-19T17:28:28;15.27;;;1.95;;
76433;SDS011;65265;53.200;6.080;2023-11-19T17:33:21;13.20;;;3.20;;
76433;SDS011;65265;53.200;6.080;2023-11-19T17:38:13;25.15;;;3.42;;
76433;SDS011;65265;53.200;6.080;2023-11-19T17:43:16;13.52;;;1.67;;
76433;SDS011;65265;53.200;6.080;2023-11-19T17:48:15;16.58;;;1.75;;
76433;SDS011;65265;53.200;6.080;2023-11-19T17:53:12;21.02;;;3.03;;
76433;SDS011;65265;53.200;6.080;2023-11-19T17:58:05;15.48;;;2.30;;
76433;SDS011;65265;53.200;6.080;2023-11-19T18:07:53;10.85;;;1.88;;
76433;SDS011;65265;53.200;6.080;2023-11-19T18:12:46;27.00;;;3.45;;
76433;SDS011;65265;53.200;6.080;2023-11-19T18:17:39;16.83;;;2.78;;
76433;SDS011;65265;53.200;6.080;2023-11-19T18:22:35;15.32;;;2.95;;
76433;SDS011;65265;53.200;6.080;2023-11-19T18:27:27;12.57;;;3.97;;
76433;SDS011;65265;53.200;6.080;2023-11-19T18:32:21;10.38;;;2.35;;
76433;SDS011;65265;53.200;6.080;2023-11-19T18:37:13;10.10;;;2.22;;
76433;SDS011;65265;53.200;6.080;2023-11-19T18:42:09;9.65;;;2.17;;
76433;SDS011;65265;53.200;6.080;2023-11-19T18:47:01;20.70;;;3.13;;
76433;SDS011;65265;53.200;6.080;2023-11-19T18:51:53;12.13;;;3.53;;
76433;SDS011;65265;53.200;6.080;2023-11-19T18:56:45;9.98;;;3.08;;
76433;SDS011;65265;53.200;6.080;2023-11-19T19:01:42;9.23;;;2.97;;
76433;SDS011;65265;53.200;6.080;2023-11-19T19:06:35;8.50;;;1.75;;
76433;SDS011;65265;53.200;6.080;2023-11-19T19:11:28;11.15;;;2.30;;
76433;SDS011;65265;53.200;6.080;2023-11-19T19:16:20;12.07;;;1.88;;
76433;SDS011;65265;53.200;6.080;2023-11-19T19:21:15;11.20;;;2.28;;
76433;SDS011;65265;53.200;6.080;2023-11-19T19:26:07;9.57;;;2.00;;
76433;SDS011;65265;53.200;6.080;2023-11-19T19:30:59;14.88;;;3.13;;
76433;SDS011;65265;53.200;6.080;2023-11-19T19:35:53;9.55;;;1.85;;
76433;SDS011;65265;53.200;6.080;2023-11-19T19:40:47;17.98;;;3.45;;
76433;SDS011;65265;53.200;6.080;2023-11-19T19:45:39;17.08;;;4.45;;
76433;SDS011;65265;53.200;6.080;2023-11-19T19:50:33;12.30;;;1.58;;
76433;SDS011;65265;53.200;6.080;2023-11-19T19:55:26;13.75;;;2.22;;
76433;SDS011;65265;53.200;6.080;2023-11-19T20:00:22;12.60;;;4.07;;
76433;SDS011;65265;53.200;6.080;2023-11-19T20:05:14;8.90;;;2.28;;
76433;SDS011;65265;53.200;6.080;2023-11-19T20:15:02;9.40;;;1.83;;
76433;SDS011;65265;53.200;6.080;2023-11-19T20:20:00;13.63;;;2.42;;
76433;SDS011;65265;53.200;6.080;2023-11-19T20:24:53;7.25;;;1.83;;
76433;SDS011;65265;53.200;6.080;2023-11-19T20:29:47;10.23;;;0.70;;
76433;SDS011;65265;53.200;6.080;2023-11-19T20:34:40;7.90;;;1.63;;
76433;SDS011;65265;53.200;6.080;2023-11-19T20:39:34;10.52;;;1.38;;
76433;SDS011;65265;53.200;6.080;2023-11-19T20:44:27;10.88;;;1.98;;
76433;SDS011;65265;53.200;6.080;2023-11-19T20:49:19;10.63;;;1.50;;
76433;SDS011;65265;53.200;6.080;2023-11-19T20:54:12;10.45;;;1.23;;
76433;SDS011;65265;53.200;6.080;2023-11-19T20:59:07;6.18;;;0.60;;
76433;SDS011;65265;53.200;6.080;2023-11-19T21:04:00;2.90;;;0.25;;
76433;SDS011;65265;53.200;6.080;2023-11-19T21:08:53;3.20;;;0.35;;
76433;SDS011;65265;53.200;6.080;2023-11-19T21:13:46;3.08;;;0.38;;
76433;SDS011;65265;53.200;6.080;2023-11-19T21:18:42;0.98;;;0.45;;
76433;SDS011;65265;53.200;6.080;2023-11-19T21:23:34;1.85;;;0.35;;
76433;SDS011;65265;53.200;6.080;2023-11-19T21:28:26;1.70;;;0.50;;
76433;SDS011;65265;53.200;6.080;2023-11-19T21:33:20;1.95;;;0.35;;
76433;SDS011;65265;53.200;6.080;2023-11-19T21:38:16;1.55;;;0.25;;
76433;SDS011;65265;53.200;6.080;2023-11-19T21:43:09;0.40;;;0.22;;
76433;SDS011;65265;53.200;6.080;2023-11-19T21:48:02;0.52;;;0.38;;
76433;SDS011;65265;53.200;6.080;2023-11-19T21:52:54;1.48;;;0.55;;
76433;SDS011;65265;53.200;6.080;2023-11-19T21:57:50;0.63;;;0.25;;
76433;SDS011;65265;53.200;6.080;2023-11-19T22:02:43;1.65;;;0.13;;
76433;SDS011;65265;53.200;6.080;2023-11-19T22:12:29;0.77;;;0.77;;
76433;SDS011;65265;53.200;6.080;2023-11-19T22:17:24;0.60;;;0.17;;
76433;SDS011;65265;53.200;6.080;2023-11-19T22:22:17;0.95;;;0.28;;
76433;SDS011;65265;53.200;6.080;2023-11-19T22:27:10;2.58;;;0.63;;
76433;SDS011;65265;53.200;6.080;2023-11-19T22:32:02;1.58;;;0.22;;
76433;SDS011;65265;53.200;6.080;2023-11-19T22:37:00;1.48;;;0.60;;
76433;SDS011;65265;53.200;6.080;2023-11-19T22:41:54;7.40;;;0.65;;
76433;SDS011;65265;53.200;6.080;2023-11-19T22:46:46;8.02;;;1.23;;
76433;SDS011;65265;53.200;6.080;2023-11-19T22:51:39;10.63;;;1.15;;
76433;SDS011;65265;53.200;6.080;2023-11-19T22:56:34;6.05;;;1.25;;
76433;SDS011;65265;53.200;6.080;2023-11-19T23:01:27;5.95;;;1.95;;
76433;SDS011;65265;53.200;6.080;2023-11-19T23:06:20;8.70;;;1.25;;
76433;SDS011;65265;53.200;6.080;2023-11-19T23:11:12;12.13;;;2.35;;
76433;SDS011;65265;53.200;6.080;2023-11-19T23:16:11;6.38;;;2.15;;
76433;SDS011;65265;53.200;6.080;2023-11-19T23:21:07;13.18;;;2.15;;
76433;SDS011;65265;53.200;6.080;2023-11-19T23:26:01;9.60;;;2.35;;
76433;SDS011;65265;53.200;6.080;2023-11-19T23:30:54;9.85;;;1.67;;
76433;SDS011;65265;53.200;6.080;2023-11-19T23:35:50;11.10;;;2.40;;
76433;SDS011;65265;53.200;6.080;2023-11-19T23:40:42;6.35;;;1.05;;
76433;SDS011;65265;53.200;6.080;2023-11-19T23:45:37;10.93;;;1.65;;
76433;SDS011;65265;53.200;6.080;2023-11-19T23:50:30;12.40;;;2.35;;
76433;SDS011;65265;53.200;6.080;2023-11-19T23:55:26;13.60;;;2.33;;
